sensor_id;sensor_type;location;lat;lon;timestamp;P1;durP1;ratioP1;P2;durP2;ratioP2
80776;SDS011;70169;51.262;6.336;2023-05-21T00:03:32;11.52;;;7.95;;
80776;SDS011;70169;51.262;6.336;2023-05-21T00:07:16;13.07;;;9.02;;
80776;SDS011;70169;51.262;6.336;2023-05-21T00:10:59;15.18;;;7.78;;
80776;SDS011;70169;51.262;6.336;2023-05-21T00:14:41;13.33;;;9.03;;
80776;SDS011;70169;51.262;6.336;2023-05-21T00:18:24;13.17;;;8.50;;
80776;SDS011;70169;51.262;6.336;2023-05-21T00:22:06;12.47;;;8.20;;
80776;SDS011;70169;51.262;6.336;2023-05-21T00:25:49;15.30;;;8.82;;
80776;SDS011;70169;51.262;6.336;2023-05-21T00:29:31;14.80;;;9.30;;
80776;SDS011;70169;51.262;6.336;2023-05-21T00:33:13;12.73;;;8.33;;
80776;SDS011;70169;51.262;6.336;2023-05-21T00:36:56;12.95;;;7.65;;
80776;SDS011;70169;51.262;6.336;2023-05-21T00:40:38;13.20;;;7.90;;
80776;SDS011;70169;51.262;6.336;2023-05-21T00:44:22;12.25;;;7.85;;
80776;SDS011;70169;51.262;6.336;2023-05-21T00:48:05;10.95;;;7.10;;
80776;SDS011;70169;51.262;6.336;2023-05-21T00:51:47;11.38;;;7.50;;
80776;SDS011;70169;51.262;6.336;2023-05-21T00:55:30;12.13;;;7.97;;
80776;SDS011;70169;51.262;6.336;2023-05-21T00:59:14;11.90;;;7.20;;
80776;SDS011;70169;51.262;6.336;2023-05-21T01:02:57;12.93;;;8.25;;
80776;SDS011;70169;51.262;6.336;2023-05-21T01:06:39;12.13;;;7.13;;
80776;SDS011;70169;51.262;6.336;2023-05-21T01:10:26;11.43;;;7.00;;
80776;SDS011;70169;51.262;6.336;2023-05-21T01:14:10;12.00;;;7.60;;
80776;SDS011;70169;51.262;6.336;2023-05-21T01:17:54;10.63;;;7.20;;
80776;SDS011;70169;51.262;6.336;2023-05-21T01:21:40;11.70;;;7.32;;
80776;SDS011;70169;51.262;6.336;2023-05-21T01:25:25;12.50;;;7.43;;
80776;SDS011;70169;51.262;6.336;2023-05-21T01:29:08;11.07;;;7.00;;
80776;SDS011;70169;51.262;6.336;2023-05-21T01:32:55;10.07;;;6.90;;
80776;SDS011;70169;51.262;6.336;2023-05-21T01:36:45;10.32;;;7.38;;
80776;SDS011;70169;51.262;6.336;2023-05-21T01:40:38;12.43;;;7.15;;
80776;SDS011;70169;51.262;6.336;2023-05-21T01:44:22;11.60;;;7.15;;
80776;SDS011;70169;51.262;6.336;2023-05-21T01:48:07;9.80;;;6.80;;
80776;SDS011;70169;51.262;6.336;2023-05-21T01:51:51;9.73;;;7.80;;
80776;SDS011;70169;51.262;6.336;2023-05-21T01:55:33;12.55;;;7.40;;
80776;SDS011;70169;51.262;6.336;2023-05-21T01:59:16;9.68;;;6.38;;
80776;SDS011;70169;51.262;6.336;2023-05-21T02:02:59;11.27;;;7.65;;
80776;SDS011;70169;51.262;6.336;2023-05-21T02:06:41;9.73;;;6.53;;
80776;SDS011;70169;51.262;6.336;2023-05-21T02:10:25;8.68;;;5.90;;
80776;SDS011;70169;51.262;6.336;2023-05-21T02:14:08;10.35;;;6.82;;
80776;SDS011;70169;51.262;6.336;2023-05-21T02:17:51;9.70;;;5.97;;
80776;SDS011;70169;51.262;6.336;2023-05-21T02:21:33;9.98;;;6.38;;
80776;SDS011;70169;51.262;6.336;2023-05-21T02:25:17;9.30;;;6.00;;
80776;SDS011;70169;51.262;6.336;2023-05-21T02:29:01;10.13;;;6.78;;
80776;SDS011;70169;51.262;6.336;2023-05-21T02:32:44;8.55;;;5.88;;
80776;SDS011;70169;51.262;6.336;2023-05-21T02:36:29;8.43;;;5.85;;
80776;SDS011;70169;51.262;6.336;2023-05-21T02:43:56;8.93;;;6.40;;
80776;SDS011;70169;51.262;6.336;2023-05-21T02:47:38;10.57;;;6.87;;
80776;SDS011;70169;51.262;6.336;2023-05-21T02:51:21;12.63;;;6.32;;
80776;SDS011;70169;51.262;6.336;2023-05-21T02:55:04;9.02;;;6.05;;
80776;SDS011;70169;51.262;6.336;2023-05-21T02:58:46;12.75;;;7.03;;
80776;SDS011;70169;51.262;6.336;2023-05-21T03:02:29;9.53;;;6.17;;
80776;SDS011;70169;51.262;6.336;2023-05-21T03:06:11;8.57;;;5.95;;
80776;SDS011;70169;51.262;6.336;2023-05-21T03:09:54;8.53;;;5.80;;
80776;SDS011;70169;51.262;6.336;2023-05-21T03:13:36;9.87;;;6.40;;
80776;SDS011;70169;51.262;6.336;2023-05-21T03:17:18;8.43;;;6.13;;
80776;SDS011;70169;51.262;6.336;2023-05-21T03:21:01;10.15;;;5.78;;
80776;SDS011;70169;51.262;6.336;2023-05-21T03:24:43;8.50;;;5.60;;
80776;SDS011;70169;51.262;6.336;2023-05-21T03:28:26;11.40;;;6.40;;
80776;SDS011;70169;51.262;6.336;2023-05-21T03:32:08;8.70;;;5.90;;
80776;SDS011;70169;51.262;6.336;2023-05-21T03:35:50;12.57;;;7.00;;
80776;SDS011;70169;51.262;6.336;2023-05-21T03:39:33;8.80;;;5.53;;
80776;SDS011;70169;51.262;6.336;2023-05-21T03:43:15;8.77;;;5.90;;
80776;SDS011;70169;51.262;6.336;2023-05-21T03:46:57;9.53;;;6.17;;
80776;SDS011;70169;51.262;6.336;2023-05-21T03:50:40;10.37;;;6.27;;
80776;SDS011;70169;51.262;6.336;2023-05-21T03:54:22;8.20;;;5.70;;
80776;SDS011;70169;51.262;6.336;2023-05-21T03:58:04;7.70;;;5.30;;
80776;SDS011;70169;51.262;6.336;2023-05-21T04:01:47;9.57;;;5.83;;
80776;SDS011;70169;51.262;6.336;2023-05-21T04:05:29;9.77;;;6.27;;
80776;SDS011;70169;51.262;6.336;2023-05-21T04:09:12;8.95;;;5.60;;
80776;SDS011;70169;51.262;6.336;2023-05-21T04:12:54;9.53;;;5.53;;
80776;SDS011;70169;51.262;6.336;2023-05-21T04:16:37;9.20;;;6.43;;
80776;SDS011;70169;51.262;6.336;2023-05-21T04:20:19;14.13;;;6.10;;
80776;SDS011;70169;51.262;6.336;2023-05-21T04:24:02;9.52;;;6.68;;
80776;SDS011;70169;51.262;6.336;2023-05-21T04:27:44;12.15;;;6.28;;
80776;SDS011;70169;51.262;6.336;2023-05-21T04:31:29;7.85;;;5.57;;
80776;SDS011;70169;51.262;6.336;2023-05-21T04:38:56;10.00;;;5.72;;
80776;SDS011;70169;51.262;6.336;2023-05-21T04:42:38;9.30;;;6.57;;
80776;SDS011;70169;51.262;6.336;2023-05-21T04:46:22;11.43;;;5.95;;
80776;SDS011;70169;51.262;6.336;2023-05-21T04:50:06;8.18;;;5.63;;
80776;SDS011;70169;51.262;6.336;2023-05-21T04:53:49;7.90;;;5.43;;
80776;SDS011;70169;51.262;6.336;2023-05-21T04:57:31;10.07;;;6.07;;
80776;SDS011;70169;51.262;6.336;2023-05-21T05:01:14;11.00;;;6.67;;
80776;SDS011;70169;51.262;6.336;2023-05-21T05:04:56;9.25;;;6.13;;
80776;SDS011;70169;51.262;6.336;2023-05-21T05:08:40;8.75;;;5.57;;
80776;SDS011;70169;51.262;6.336;2023-05-21T05:12:23;8.97;;;5.90;;
80776;SDS011;70169;51.262;6.336;2023-05-21T05:16:05;9.50;;;6.37;;
80776;SDS011;70169;51.262;6.336;2023-05-21T05:19:48;9.00;;;6.22;;
80776;SDS011;70169;51.262;6.336;2023-05-21T05:23:30;8.80;;;5.73;;
80776;SDS011;70169;51.262;6.336;2023-05-21T05:27:12;8.27;;;5.50;;
80776;SDS011;70169;51.262;6.336;2023-05-21T05:30:55;8.13;;;5.67;;
80776;SDS011;70169;51.262;6.336;2023-05-21T05:34:37;9.57;;;6.37;;
80776;SDS011;70169;51.262;6.336;2023-05-21T05:38:19;10.23;;;6.07;;
80776;SDS011;70169;51.262;6.336;2023-05-21T05:42:02;10.10;;;5.75;;
80776;SDS011;70169;51.262;6.336;2023-05-21T05:45:45;9.52;;;6.00;;
80776;SDS011;70169;51.262;6.336;2023-05-21T05:49:27;8.97;;;6.53;;
80776;SDS011;70169;51.262;6.336;2023-05-21T05:53:09;10.90;;;6.00;;
80776;SDS011;70169;51.262;6.336;2023-05-21T05:56:54;9.25;;;5.65;;
80776;SDS011;70169;51.262;6.336;2023-05-21T06:00:36;9.10;;;6.13;;
80776;SDS011;70169;51.262;6.336;2023-05-21T06:04:19;8.90;;;6.15;;
80776;SDS011;70169;51.262;6.336;2023-05-21T06:08:01;11.00;;;7.07;;
80776;SDS011;70169;51.262;6.336;2023-05-21T06:11:43;11.03;;;6.60;;
80776;SDS011;70169;51.262;6.336;2023-05-21T06:15:26;8.70;;;6.33;;
80776;SDS011;70169;51.262;6.336;2023-05-21T06:19:08;9.53;;;6.67;;
80776;SDS011;70169;51.262;6.336;2023-05-21T06:22:50;13.30;;;7.33;;
80776;SDS011;70169;51.262;6.336;2023-05-21T06:26:32;13.53;;;6.90;;
80776;SDS011;70169;51.262;6.336;2023-05-21T06:30:15;12.53;;;6.93;;
80776;SDS011;70169;51.262;6.336;2023-05-21T06:33:57;12.07;;;6.53;;
80776;SDS011;70169;51.262;6.336;2023-05-21T06:37:40;10.93;;;7.32;;
80776;SDS011;70169;51.262;6.336;2023-05-21T06:41:24;10.02;;;6.72;;
80776;SDS011;70169;51.262;6.336;2023-05-21T06:45:07;14.10;;;7.65;;
80776;SDS011;70169;51.262;6.336;2023-05-21T06:48:50;14.43;;;7.32;;
80776;SDS011;70169;51.262;6.336;2023-05-21T06:52:32;13.00;;;7.43;;
80776;SDS011;70169;51.262;6.336;2023-05-21T06:56:14;11.97;;;7.03;;
80776;SDS011;70169;51.262;6.336;2023-05-21T06:59:56;10.07;;;7.33;;
80776;SDS011;70169;51.262;6.336;2023-05-21T07:03:39;12.17;;;7.63;;
80776;SDS011;70169;51.262;6.336;2023-05-21T07:07:21;13.33;;;7.50;;
80776;SDS011;70169;51.262;6.336;2023-05-21T07:11:03;11.47;;;8.03;;
80776;SDS011;70169;51.262;6.336;2023-05-21T07:14:46;12.57;;;8.27;;
80776;SDS011;70169;51.262;6.336;2023-05-21T07:18:28;11.50;;;7.40;;
80776;SDS011;70169;51.262;6.336;2023-05-21T07:22:10;11.40;;;7.40;;
80776;SDS011;70169;51.262;6.336;2023-05-21T07:25:53;11.45;;;7.13;;
80776;SDS011;70169;51.262;6.336;2023-05-21T07:29:35;10.27;;;7.63;;
80776;SDS011;70169;51.262;6.336;2023-05-21T07:33:18;12.40;;;7.97;;
80776;SDS011;70169;51.262;6.336;2023-05-21T07:37:01;12.27;;;8.70;;
80776;SDS011;70169;51.262;6.336;2023-05-21T07:40:43;13.87;;;8.73;;
80776;SDS011;70169;51.262;6.336;2023-05-21T07:44:26;12.20;;;7.50;;
80776;SDS011;70169;51.262;6.336;2023-05-21T07:48:08;12.43;;;8.30;;
80776;SDS011;70169;51.262;6.336;2023-05-21T07:51:50;11.90;;;8.20;;
80776;SDS011;70169;51.262;6.336;2023-05-21T07:55:33;12.00;;;8.73;;
80776;SDS011;70169;51.262;6.336;2023-05-21T07:59:15;11.23;;;8.53;;
80776;SDS011;70169;51.262;6.336;2023-05-21T08:02:58;13.35;;;8.82;;
80776;SDS011;70169;51.262;6.336;2023-05-21T08:06:40;16.23;;;10.03;;
80776;SDS011;70169;51.262;6.336;2023-05-21T08:10:22;15.50;;;9.17;;
80776;SDS011;70169;51.262;6.336;2023-05-21T08:14:05;12.70;;;8.80;;
80776;SDS011;70169;51.262;6.336;2023-05-21T08:17:47;14.27;;;9.80;;
80776;SDS011;70169;51.262;6.336;2023-05-21T08:21:29;14.10;;;9.27;;
80776;SDS011;70169;51.262;6.336;2023-05-21T08:25:13;13.98;;;9.48;;
80776;SDS011;70169;51.262;6.336;2023-05-21T08:28:55;16.77;;;10.10;;
80776;SDS011;70169;51.262;6.336;2023-05-21T08:32:38;13.57;;;9.23;;
80776;SDS011;70169;51.262;6.336;2023-05-21T08:36:20;14.40;;;9.50;;
80776;SDS011;70169;51.262;6.336;2023-05-21T08:40:03;12.40;;;9.20;;
80776;SDS011;70169;51.262;6.336;2023-05-21T08:43:47;14.25;;;9.88;;
80776;SDS011;70169;51.262;6.336;2023-05-21T08:47:34;14.13;;;9.75;;
80776;SDS011;70169;51.262;6.336;2023-05-21T08:51:17;15.23;;;9.20;;
80776;SDS011;70169;51.262;6.336;2023-05-21T08:55:00;15.47;;;9.33;;
80776;SDS011;70169;51.262;6.336;2023-05-21T08:58:45;12.30;;;9.07;;
80776;SDS011;70169;51.262;6.336;2023-05-21T09:02:28;13.27;;;9.73;;
80776;SDS011;70169;51.262;6.336;2023-05-21T09:06:13;15.02;;;10.13;;
80776;SDS011;70169;51.262;6.336;2023-05-21T09:09:56;13.17;;;9.50;;
80776;SDS011;70169;51.262;6.336;2023-05-21T09:13:42;14.07;;;9.98;;
80776;SDS011;70169;51.262;6.336;2023-05-21T09:17:25;15.35;;;10.30;;
80776;SDS011;70169;51.262;6.336;2023-05-21T09:25:09;15.02;;;10.32;;
80776;SDS011;70169;51.262;6.336;2023-05-21T09:28:57;14.07;;;11.15;;
80776;SDS011;70169;51.262;6.336;2023-05-21T09:32:41;13.95;;;11.15;;
80776;SDS011;70169;51.262;6.336;2023-05-21T09:36:24;15.38;;;11.25;;
80776;SDS011;70169;51.262;6.336;2023-05-21T09:40:13;16.13;;;10.53;;
80776;SDS011;70169;51.262;6.336;2023-05-21T09:43:59;14.77;;;10.98;;
80776;SDS011;70169;51.262;6.336;2023-05-21T09:47:43;16.85;;;10.10;;
80776;SDS011;70169;51.262;6.336;2023-05-21T09:51:26;14.68;;;10.45;;
80776;SDS011;70169;51.262;6.336;2023-05-21T09:55:09;16.33;;;11.33;;
80776;SDS011;70169;51.262;6.336;2023-05-21T09:58:59;18.45;;;11.20;;
80776;SDS011;70169;51.262;6.336;2023-05-21T10:02:45;15.50;;;12.30;;
80776;SDS011;70169;51.262;6.336;2023-05-21T10:06:29;15.98;;;10.60;;
80776;SDS011;70169;51.262;6.336;2023-05-21T10:10:13;16.30;;;12.25;;
80776;SDS011;70169;51.262;6.336;2023-05-21T10:13:57;17.13;;;12.43;;
80776;SDS011;70169;51.262;6.336;2023-05-21T10:17:44;15.55;;;12.20;;
80776;SDS011;70169;51.262;6.336;2023-05-21T10:21:28;16.42;;;12.68;;
80776;SDS011;70169;51.262;6.336;2023-05-21T10:25:12;15.80;;;11.48;;
80776;SDS011;70169;51.262;6.336;2023-05-21T10:28:55;20.42;;;13.02;;
80776;SDS011;70169;51.262;6.336;2023-05-21T10:32:39;15.15;;;13.38;;
80776;SDS011;70169;51.262;6.336;2023-05-21T10:36:23;16.75;;;12.52;;
80776;SDS011;70169;51.262;6.336;2023-05-21T10:40:06;15.95;;;11.85;;
80776;SDS011;70169;51.262;6.336;2023-05-21T10:44:09;16.45;;;12.32;;
80776;SDS011;70169;51.262;6.336;2023-05-21T10:48:34;18.35;;;13.38;;
80776;SDS011;70169;51.262;6.336;2023-05-21T10:57:09;17.85;;;13.15;;
80776;SDS011;70169;51.262;6.336;2023-05-21T11:00:55;17.38;;;13.40;;
80776;SDS011;70169;51.262;6.336;2023-05-21T11:04:39;20.45;;;13.48;;
80776;SDS011;70169;51.262;6.336;2023-05-21T11:12:16;14.45;;;11.52;;
80776;SDS011;70169;51.262;6.336;2023-05-21T11:19:46;19.77;;;12.93;;
80776;SDS011;70169;51.262;6.336;2023-05-21T11:23:48;20.20;;;13.77;;
80776;SDS011;70169;51.262;6.336;2023-05-21T11:31:24;17.67;;;14.37;;
80776;SDS011;70169;51.262;6.336;2023-05-21T11:35:07;21.33;;;14.80;;
80776;SDS011;70169;51.262;6.336;2023-05-21T11:43:09;21.15;;;15.07;;
80776;SDS011;70169;51.262;6.336;2023-05-21T11:46:51;18.50;;;13.87;;
80776;SDS011;70169;51.262;6.336;2023-05-21T11:50:34;19.02;;;13.70;;
80776;SDS011;70169;51.262;6.336;2023-05-21T11:54:17;20.85;;;14.35;;
80776;SDS011;70169;51.262;6.336;2023-05-21T11:58:00;20.27;;;15.32;;
80776;SDS011;70169;51.262;6.336;2023-05-21T12:01:43;19.33;;;14.23;;
80776;SDS011;70169;51.262;6.336;2023-05-21T12:05:25;18.90;;;13.83;;
80776;SDS011;70169;51.262;6.336;2023-05-21T12:09:08;17.95;;;13.20;;
80776;SDS011;70169;51.262;6.336;2023-05-21T12:12:51;19.27;;;14.00;;
80776;SDS011;70169;51.262;6.336;2023-05-21T12:16:33;20.83;;;14.40;;
80776;SDS011;70169;51.262;6.336;2023-05-21T12:20:16;17.75;;;13.43;;
80776;SDS011;70169;51.262;6.336;2023-05-21T12:23:58;17.50;;;13.13;;
80776;SDS011;70169;51.262;6.336;2023-05-21T12:27:41;18.37;;;12.77;;
80776;SDS011;70169;51.262;6.336;2023-05-21T12:31:28;18.88;;;13.43;;
80776;SDS011;70169;51.262;6.336;2023-05-21T12:35:20;20.55;;;15.88;;
80776;SDS011;70169;51.262;6.336;2023-05-21T12:39:03;20.02;;;14.38;;
80776;SDS011;70169;51.262;6.336;2023-05-21T12:42:46;18.30;;;13.95;;
80776;SDS011;70169;51.262;6.336;2023-05-21T12:46:28;18.92;;;12.95;;
80776;SDS011;70169;51.262;6.336;2023-05-21T12:50:11;19.50;;;12.77;;
80776;SDS011;70169;51.262;6.336;2023-05-21T12:53:54;19.70;;;13.27;;
80776;SDS011;70169;51.262;6.336;2023-05-21T12:57:37;16.75;;;13.23;;
80776;SDS011;70169;51.262;6.336;2023-05-21T13:01:20;15.80;;;12.23;;
80776;SDS011;70169;51.262;6.336;2023-05-21T13:05:03;19.85;;;13.77;;
80776;SDS011;70169;51.262;6.336;2023-05-21T13:08:48;16.48;;;12.02;;
80776;SDS011;70169;51.262;6.336;2023-05-21T13:12:31;16.95;;;12.35;;
80776;SDS011;70169;51.262;6.336;2023-05-21T13:16:14;19.15;;;14.48;;
80776;SDS011;70169;51.262;6.336;2023-05-21T13:23:49;17.58;;;12.68;;
80776;SDS011;70169;51.262;6.336;2023-05-21T13:27:32;17.27;;;12.73;;
80776;SDS011;70169;51.262;6.336;2023-05-21T13:31:14;17.60;;;13.43;;
80776;SDS011;70169;51.262;6.336;2023-05-21T13:34:57;18.98;;;13.02;;
80776;SDS011;70169;51.262;6.336;2023-05-21T13:38:39;19.27;;;13.60;;
80776;SDS011;70169;51.262;6.336;2023-05-21T13:42:21;17.47;;;12.47;;
80776;SDS011;70169;51.262;6.336;2023-05-21T13:46:04;20.05;;;13.00;;
80776;SDS011;70169;51.262;6.336;2023-05-21T13:49:46;17.40;;;12.97;;
80776;SDS011;70169;51.262;6.336;2023-05-21T13:53:29;18.27;;;12.50;;
80776;SDS011;70169;51.262;6.336;2023-05-21T13:57:11;17.10;;;12.93;;
80776;SDS011;70169;51.262;6.336;2023-05-21T14:00:53;19.47;;;12.73;;
80776;SDS011;70169;51.262;6.336;2023-05-21T14:04:36;17.03;;;12.53;;
80776;SDS011;70169;51.262;6.336;2023-05-21T14:08:19;16.17;;;12.48;;
80776;SDS011;70169;51.262;6.336;2023-05-21T14:12:02;17.00;;;11.90;;
80776;SDS011;70169;51.262;6.336;2023-05-21T14:15:46;16.15;;;12.30;;
80776;SDS011;70169;51.262;6.336;2023-05-21T14:19:29;13.57;;;10.65;;
80776;SDS011;70169;51.262;6.336;2023-05-21T14:23:11;14.47;;;12.13;;
80776;SDS011;70169;51.262;6.336;2023-05-21T14:26:54;18.27;;;11.83;;
80776;SDS011;70169;51.262;6.336;2023-05-21T14:30:36;19.23;;;12.43;;
80776;SDS011;70169;51.262;6.336;2023-05-21T14:34:18;17.43;;;12.87;;
80776;SDS011;70169;51.262;6.336;2023-05-21T14:38:00;15.90;;;11.93;;
80776;SDS011;70169;51.262;6.336;2023-05-21T14:41:43;18.27;;;12.43;;
80776;SDS011;70169;51.262;6.336;2023-05-21T14:45:25;16.07;;;11.60;;
80776;SDS011;70169;51.262;6.336;2023-05-21T14:49:07;18.17;;;12.87;;
80776;SDS011;70169;51.262;6.336;2023-05-21T14:52:50;16.23;;;11.57;;
80776;SDS011;70169;51.262;6.336;2023-05-21T14:56:32;16.60;;;12.43;;
80776;SDS011;70169;51.262;6.336;2023-05-21T15:00:14;15.43;;;12.03;;
80776;SDS011;70169;51.262;6.336;2023-05-21T15:03:57;15.55;;;13.82;;
80776;SDS011;70169;51.262;6.336;2023-05-21T15:07:39;15.23;;;11.13;;
80776;SDS011;70169;51.262;6.336;2023-05-21T15:11:22;16.03;;;12.13;;
80776;SDS011;70169;51.262;6.336;2023-05-21T15:15:04;16.80;;;11.10;;
80776;SDS011;70169;51.262;6.336;2023-05-21T15:18:48;17.27;;;11.55;;
80776;SDS011;70169;51.262;6.336;2023-05-21T15:22:31;16.35;;;12.05;;
80776;SDS011;70169;51.262;6.336;2023-05-21T15:26:14;14.43;;;11.52;;
80776;SDS011;70169;51.262;6.336;2023-05-21T15:29:56;13.73;;;10.53;;
80776;SDS011;70169;51.262;6.336;2023-05-21T15:33:39;16.60;;;12.17;;
80776;SDS011;70169;51.262;6.336;2023-05-21T15:37:21;16.60;;;12.57;;
80776;SDS011;70169;51.262;6.336;2023-05-21T15:41:04;16.63;;;11.20;;
80776;SDS011;70169;51.262;6.336;2023-05-21T15:44:46;26.38;;;20.58;;
80776;SDS011;70169;51.262;6.336;2023-05-21T15:48:28;20.03;;;14.50;;
80776;SDS011;70169;51.262;6.336;2023-05-21T15:52:11;17.60;;;13.80;;
80776;SDS011;70169;51.262;6.336;2023-05-21T15:55:53;15.83;;;12.27;;
80776;SDS011;70169;51.262;6.336;2023-05-21T15:59:35;16.33;;;11.40;;
80776;SDS011;70169;51.262;6.336;2023-05-21T16:03:17;19.70;;;12.37;;
80776;SDS011;70169;51.262;6.336;2023-05-21T16:07:00;17.13;;;12.47;;
80776;SDS011;70169;51.262;6.336;2023-05-21T16:10:42;18.50;;;13.15;;
80776;SDS011;70169;51.262;6.336;2023-05-21T16:14:26;19.65;;;12.23;;
80776;SDS011;70169;51.262;6.336;2023-05-21T16:18:10;18.67;;;13.05;;
80776;SDS011;70169;51.262;6.336;2023-05-21T16:21:52;19.77;;;13.15;;
80776;SDS011;70169;51.262;6.336;2023-05-21T16:25:35;24.80;;;17.73;;
80776;SDS011;70169;51.262;6.336;2023-05-21T16:29:17;18.03;;;13.50;;
80776;SDS011;70169;51.262;6.336;2023-05-21T16:32:59;16.47;;;13.23;;
80776;SDS011;70169;51.262;6.336;2023-05-21T16:36:42;16.13;;;13.07;;
80776;SDS011;70169;51.262;6.336;2023-05-21T16:40:24;19.00;;;12.60;;
80776;SDS011;70169;51.262;6.336;2023-05-21T16:44:07;19.58;;;13.18;;
80776;SDS011;70169;51.262;6.336;2023-05-21T16:47:49;17.23;;;13.03;;
80776;SDS011;70169;51.262;6.336;2023-05-21T16:51:32;17.25;;;12.57;;
80776;SDS011;70169;51.262;6.336;2023-05-21T16:55:14;15.35;;;12.07;;
80776;SDS011;70169;51.262;6.336;2023-05-21T16:58:57;15.57;;;12.17;;
80776;SDS011;70169;51.262;6.336;2023-05-21T17:02:39;14.85;;;11.95;;
80776;SDS011;70169;51.262;6.336;2023-05-21T17:06:22;14.90;;;11.40;;
80776;SDS011;70169;51.262;6.336;2023-05-21T17:10:04;13.90;;;11.40;;
80776;SDS011;70169;51.262;6.336;2023-05-21T17:13:47;16.88;;;10.95;;
80776;SDS011;70169;51.262;6.336;2023-05-21T17:17:29;14.57;;;11.60;;
80776;SDS011;70169;51.262;6.336;2023-05-21T17:21:12;15.73;;;12.17;;
80776;SDS011;70169;51.262;6.336;2023-05-21T17:24:54;15.88;;;11.88;;
80776;SDS011;70169;51.262;6.336;2023-05-21T17:33:03;17.33;;;11.77;;
80776;SDS011;70169;51.262;6.336;2023-05-21T17:36:45;19.30;;;11.97;;
80776;SDS011;70169;51.262;6.336;2023-05-21T17:40:27;18.43;;;11.80;;
80776;SDS011;70169;51.262;6.336;2023-05-21T17:44:10;14.70;;;11.97;;
80776;SDS011;70169;51.262;6.336;2023-05-21T17:47:54;15.70;;;11.48;;
80776;SDS011;70169;51.262;6.336;2023-05-21T17:51:37;14.90;;;11.18;;
80776;SDS011;70169;51.262;6.336;2023-05-21T17:55:20;15.43;;;11.85;;
80776;SDS011;70169;51.262;6.336;2023-05-21T17:59:02;16.87;;;11.07;;
80776;SDS011;70169;51.262;6.336;2023-05-21T18:02:48;13.00;;;11.15;;
80776;SDS011;70169;51.262;6.336;2023-05-21T18:06:30;15.53;;;12.80;;
80776;SDS011;70169;51.262;6.336;2023-05-21T18:10:13;13.77;;;10.88;;
80776;SDS011;70169;51.262;6.336;2023-05-21T18:13:56;15.73;;;11.38;;
80776;SDS011;70169;51.262;6.336;2023-05-21T18:17:38;15.53;;;11.43;;
80776;SDS011;70169;51.262;6.336;2023-05-21T18:21:21;17.27;;;11.57;;
80776;SDS011;70169;51.262;6.336;2023-05-21T18:25:03;14.23;;;11.47;;
80776;SDS011;70169;51.262;6.336;2023-05-21T18:28:46;14.73;;;11.07;;
80776;SDS011;70169;51.262;6.336;2023-05-21T18:32:29;18.98;;;13.07;;
80776;SDS011;70169;51.262;6.336;2023-05-21T18:36:13;14.48;;;11.45;;
80776;SDS011;70169;51.262;6.336;2023-05-21T18:39:55;18.50;;;11.70;;
80776;SDS011;70169;51.262;6.336;2023-05-21T18:43:38;14.23;;;10.97;;
80776;SDS011;70169;51.262;6.336;2023-05-21T18:47:22;16.60;;;12.55;;
80776;SDS011;70169;51.262;6.336;2023-05-21T18:51:04;19.00;;;11.90;;
80776;SDS011;70169;51.262;6.336;2023-05-21T18:54:47;16.23;;;13.33;;
80776;SDS011;70169;51.262;6.336;2023-05-21T18:58:29;15.37;;;11.73;;
80776;SDS011;70169;51.262;6.336;2023-05-21T19:02:11;15.83;;;11.43;;
80776;SDS011;70169;51.262;6.336;2023-05-21T19:05:54;14.37;;;11.30;;
80776;SDS011;70169;51.262;6.336;2023-05-21T19:09:36;17.33;;;11.60;;
80776;SDS011;70169;51.262;6.336;2023-05-21T19:13:18;13.93;;;11.53;;
80776;SDS011;70169;51.262;6.336;2023-05-21T19:17:01;16.33;;;12.23;;
80776;SDS011;70169;51.262;6.336;2023-05-21T19:20:43;14.77;;;10.77;;
80776;SDS011;70169;51.262;6.336;2023-05-21T19:24:25;14.93;;;12.57;;
80776;SDS011;70169;51.262;6.336;2023-05-21T19:28:08;16.70;;;11.37;;
80776;SDS011;70169;51.262;6.336;2023-05-21T19:31:50;15.13;;;12.90;;
80776;SDS011;70169;51.262;6.336;2023-05-21T19:35:36;15.02;;;12.38;;
80776;SDS011;70169;51.262;6.336;2023-05-21T19:39:19;15.50;;;11.90;;
80776;SDS011;70169;51.262;6.336;2023-05-21T19:43:02;15.10;;;12.07;;
80776;SDS011;70169;51.262;6.336;2023-05-21T19:46:44;16.35;;;11.82;;
80776;SDS011;70169;51.262;6.336;2023-05-21T19:50:26;19.53;;;12.23;;
80776;SDS011;70169;51.262;6.336;2023-05-21T19:54:09;16.30;;;11.70;;
80776;SDS011;70169;51.262;6.336;2023-05-21T19:57:52;14.70;;;12.00;;
80776;SDS011;70169;51.262;6.336;2023-05-21T20:01:34;16.80;;;11.80;;
80776;SDS011;70169;51.262;6.336;2023-05-21T20:05:20;17.45;;;12.93;;
80776;SDS011;70169;51.262;6.336;2023-05-21T20:09:02;15.63;;;12.33;;
80776;SDS011;70169;51.262;6.336;2023-05-21T20:12:46;17.50;;;12.70;;
80776;SDS011;70169;51.262;6.336;2023-05-21T20:16:28;15.10;;;12.30;;
80776;SDS011;70169;51.262;6.336;2023-05-21T20:20:11;16.75;;;12.75;;
80776;SDS011;70169;51.262;6.336;2023-05-21T20:23:53;16.97;;;12.70;;
80776;SDS011;70169;51.262;6.336;2023-05-21T20:27:36;18.90;;;14.03;;
80776;SDS011;70169;51.262;6.336;2023-05-21T20:31:19;17.80;;;13.05;;
80776;SDS011;70169;51.262;6.336;2023-05-21T20:35:02;17.17;;;13.25;;
80776;SDS011;70169;51.262;6.336;2023-05-21T20:38:45;16.67;;;13.70;;
80776;SDS011;70169;51.262;6.336;2023-05-21T20:42:28;17.23;;;13.25;;
80776;SDS011;70169;51.262;6.336;2023-05-21T20:46:15;16.75;;;12.88;;
80776;SDS011;70169;51.262;6.336;2023-05-21T20:49:58;19.92;;;13.13;;
80776;SDS011;70169;51.262;6.336;2023-05-21T20:53:40;18.20;;;12.65;;
80776;SDS011;70169;51.262;6.336;2023-05-21T20:57:23;16.60;;;13.30;;
80776;SDS011;70169;51.262;6.336;2023-05-21T21:01:09;19.27;;;14.00;;
80776;SDS011;70169;51.262;6.336;2023-05-21T21:04:52;16.80;;;12.55;;
80776;SDS011;70169;51.262;6.336;2023-05-21T21:08:34;16.92;;;13.25;;
80776;SDS011;70169;51.262;6.336;2023-05-21T21:12:16;17.37;;;13.20;;
80776;SDS011;70169;51.262;6.336;2023-05-21T21:15:59;17.52;;;13.60;;
80776;SDS011;70169;51.262;6.336;2023-05-21T21:19:41;19.53;;;13.40;;
80776;SDS011;70169;51.262;6.336;2023-05-21T21:23:27;19.83;;;14.43;;
80776;SDS011;70169;51.262;6.336;2023-05-21T21:27:10;19.77;;;15.18;;
80776;SDS011;70169;51.262;6.336;2023-05-21T21:30:52;21.33;;;14.47;;
80776;SDS011;70169;51.262;6.336;2023-05-21T21:34:35;19.83;;;15.00;;
80776;SDS011;70169;51.262;6.336;2023-05-21T21:38:17;21.43;;;16.80;;
80776;SDS011;70169;51.262;6.336;2023-05-21T21:41:59;20.70;;;15.27;;
80776;SDS011;70169;51.262;6.336;2023-05-21T21:45:42;20.33;;;15.60;;
80776;SDS011;70169;51.262;6.336;2023-05-21T21:49:24;18.73;;;14.20;;
80776;SDS011;70169;51.262;6.336;2023-05-21T21:53:06;19.93;;;14.20;;
80776;SDS011;70169;51.262;6.336;2023-05-21T22:00:33;17.63;;;12.60;;
80776;SDS011;70169;51.262;6.336;2023-05-21T22:04:15;17.92;;;12.35;;
80776;SDS011;70169;51.262;6.336;2023-05-21T22:07:58;16.63;;;12.03;;
80776;SDS011;70169;51.262;6.336;2023-05-21T22:11:40;15.98;;;11.90;;
80776;SDS011;70169;51.262;6.336;2023-05-21T22:15:22;15.30;;;11.37;;
80776;SDS011;70169;51.262;6.336;2023-05-21T22:19:05;17.65;;;11.98;;
80776;SDS011;70169;51.262;6.336;2023-05-21T22:22:48;14.80;;;11.40;;
80776;SDS011;70169;51.262;6.336;2023-05-21T22:26:30;16.93;;;10.60;;
80776;SDS011;70169;51.262;6.336;2023-05-21T22:30:12;14.47;;;10.47;;
80776;SDS011;70169;51.262;6.336;2023-05-21T22:33:55;12.63;;;9.83;;
80776;SDS011;70169;51.262;6.336;2023-05-21T22:37:37;13.50;;;10.10;;
80776;SDS011;70169;51.262;6.336;2023-05-21T22:41:20;14.38;;;9.80;;